Home   Weather   Germany   Königs Wusterhausen   Past weeks
Flag for Germany

Past Weather in Königs Wusterhausen, Brandenburg, Germany — Yesterday and Last 2 Weeks

Currently: 64 °F. Sunny. (Weather station: Berlin-Schoenefeld, Germany). See more current weather

Past Weather in Königs Wusterhausen — Graph

°F

Königs Wusterhausen Temperature Yesterday

Maximum temperature yesterday: 77 °F (at 2:20 pm)
Minimum temperature yesterday: 61 °F (at 10:50 pm)
Average temperature yesterday: 69 °F

High & Low Weather Summary for the Past Weeks

 TemperatureHumidityPressure
High88 °F (Jul 25, 3:50 pm)100% (Jul 23, 5:20 am)30.18 "Hg (Jul 23, 5:20 am)
Low54 °F (Jul 21, 4:20 am)31% (Jul 29, 1:50 pm)29.77 "Hg (Jul 25, 3:50 pm)
Average70 °F66%29.97 "Hg
* Reported Jul 15 7:20 am — Jul 30 7:50 am, Königs Wusterhausen. Weather by CustomWeather, © 2021

Note: Actual official high and low records may vary slightly from our data, if they occured in-between our weather recording intervals... More about our weather records

Königs Wusterhausen Weather History for the Previous 24 Hours

Scroll right to see more
 ConditionsComfort  
Time TempWeatherWind HumidityBarometerVisibility
7:50 am
Fri, Jul 30
63 °FSunny.13 mph64%29.83 "Hg10 mi
7:20 am61 °FSunny.10 mph63%29.83 "Hg10 mi
6:50 am57 °FSunny.10 mph72%29.83 "Hg10 mi
6:20 am57 °FSunny.9 mph72%29.83 "Hg10 mi
5:50 am57 °FSunny.7 mph67%29.83 "Hg10 mi
5:20 am55 °FClear.9 mph72%29.83 "Hg10 mi
4:50 am55 °FClear.7 mph72%29.83 "Hg10 mi
4:20 am55 °FClear.7 mph72%29.83 "Hg10 mi
3:50 am55 °FClear.9 mph72%29.83 "Hg10 mi
3:20 am55 °FClear.6 mph72%29.83 "Hg10 mi
2:50 am55 °FClear.5 mph72%29.83 "Hg10 mi
2:20 am57 °FPassing clouds.3 mph67%29.86 "HgN/A
1:50 am55 °FClear.5 mph72%29.86 "Hg10 mi
1:20 am57 °FClear.6 mph67%29.86 "Hg10 mi
12:50 am59 °FClear.5 mph59%29.86 "Hg10 mi
12:20 am61 °FClear.5 mph55%29.86 "Hg10 mi
11:50 pm
Thu, Jul 29
63 °FClear.3 mph56%29.86 "Hg10 mi
11:20 pm63 °FClear.7 mph56%29.86 "Hg10 mi
10:50 pm61 °FClear.7 mph59%29.86 "Hg10 mi
10:20 pm64 °FClear.7 mph52%29.86 "Hg10 mi
9:50 pm64 °FClear.7 mph52%29.86 "Hg10 mi
9:20 pm66 °FClear.7 mph49%29.83 "Hg10 mi
8:50 pm70 °FSunny.8 mph40%29.83 "Hg10 mi
8:20 pm72 °FSunny.13 mph38%29.83 "Hg10 mi
7:50 pm73 °FSunny.10 mph38%29.83 "Hg10 mi
7:20 pm73 °FSunny.13 mph38%29.83 "Hg10 mi
6:50 pm73 °FSunny.14 mph41%29.80 "Hg10 mi
6:20 pm73 °FSunny.17 mph41%29.80 "Hg10 mi
5:50 pm77 °FSunny.23 mph34%29.80 "Hg10 mi
5:20 pm77 °FSunny.18 mph36%29.80 "Hg10 mi
4:50 pm75 °FSunny.20 mph36%29.80 "Hg10 mi
4:20 pm75 °FSunny.20 mph36%29.80 "Hg10 mi
3:50 pm75 °FPassing clouds.18 mph39%29.80 "HgN/A
3:20 pm75 °FSunny.21 mph39%29.83 "Hg10 mi
2:50 pm77 °FSunny.20 mph39%29.83 "Hg10 mi
2:20 pm77 °FSunny.25 mph34%29.83 "Hg10 mi
1:50 pm75 °FSunny.23 mph31%29.83 "Hg10 mi
1:20 pm73 °FPassing clouds.20 mph47%29.83 "HgN/A
12:50 pm75 °FPassing clouds.18 mph44%29.83 "HgN/A
12:20 pm73 °FPassing clouds.21 mph50%29.83 "HgN/A
11:50 am72 °FScattered clouds.15 mph57%29.83 "HgN/A
11:20 am70 °FScattered clouds.15 mph57%29.83 "HgN/A
10:50 am72 °FScattered clouds.21 mph53%29.83 "HgN/A
10:20 am73 °FPassing clouds.20 mph50%29.83 "HgN/A
9:50 am72 °FPassing clouds.15 mph53%29.83 "HgN/A
9:20 am70 °FPassing clouds.16 mph60%29.83 "HgN/A
Weather by CustomWeather, © 2021

See weather overview